createdAt,value
2022-08-17T00:00:02.221Z,18.6
2022-08-17T00:10:01.355Z,18.4
2022-08-17T00:15:01.268Z,18.4
2022-08-17T00:20:01.243Z,18.2
2022-08-17T00:25:01.328Z,18.1
2022-08-17T00:30:01.235Z,17.9
2022-08-17T00:35:01.323Z,17.8
2022-08-17T00:40:01.231Z,17.7
2022-08-17T00:45:01.345Z,17.7
2022-08-17T00:50:01.208Z,17.6
2022-08-17T01:00:03.725Z,17.5
2022-08-17T01:05:01.344Z,17.4
2022-08-17T01:15:01.304Z,17.4
2022-08-17T01:30:01.294Z,17.4
2022-08-17T01:45:01.367Z,17.4
2022-08-17T02:00:02.616Z,17.4
2022-08-17T02:05:01.370Z,17.5
2022-08-17T02:15:01.585Z,17.5
2022-08-17T02:30:01.376Z,17.5
2022-08-17T02:40:01.324Z,17.4
2022-08-17T02:45:01.315Z,17.4
2022-08-17T03:00:02.815Z,17.3
2022-08-17T03:15:01.055Z,17.2
2022-08-17T03:25:01.050Z,17.1
2022-08-17T03:30:01.063Z,17.1
2022-08-17T03:40:01.165Z,17.0
2022-08-17T03:45:01.057Z,16.9
2022-08-17T04:00:01.106Z,16.8
2022-08-17T04:30:00.782Z,16.9
2022-08-17T04:40:03.785Z,16.8
2022-08-17T04:45:00.689Z,16.8
2022-08-17T04:50:00.689Z,16.9
2022-08-17T05:00:02.106Z,16.9
2022-08-17T05:05:00.634Z,17.0
2022-08-17T05:15:00.697Z,17.1
2022-08-17T05:20:00.693Z,17.2
2022-08-17T05:30:00.698Z,17.3
2022-08-17T05:40:00.769Z,17.4
2022-08-17T05:45:00.775Z,17.4
2022-08-17T05:50:00.706Z,17.5
2022-08-17T05:55:00.856Z,17.6
2022-08-17T06:00:01.416Z,17.7
2022-08-17T06:05:00.982Z,17.8
2022-08-17T06:10:00.752Z,17.9
2022-08-17T06:15:00.715Z,18.0
2022-08-17T06:20:00.721Z,18.2
2022-08-17T06:30:02.134Z,18.3
2022-08-17T06:35:01.050Z,18.5
2022-08-17T06:40:00.963Z,18.7
2022-08-17T06:45:00.900Z,18.8
2022-08-17T06:50:01.025Z,19.1
2022-08-17T06:55:01.098Z,19.3
2022-08-17T07:00:02.461Z,19.6
2022-08-17T07:05:01.006Z,19.8
2022-08-17T07:10:01.054Z,20.2
2022-08-17T07:15:01.126Z,20.5
2022-08-17T07:20:00.787Z,20.8
2022-08-17T07:25:01.119Z,21.1
2022-08-17T07:30:01.117Z,21.4
2022-08-17T07:35:00.948Z,21.6
2022-08-17T07:40:15.661Z,21.8
2022-08-17T07:45:00.808Z,21.9
2022-08-17T07:50:00.930Z,22.1
2022-08-17T08:00:03.127Z,22.3
2022-08-17T08:05:01.812Z,22.4
2022-08-17T08:10:00.773Z,22.6
2022-08-17T08:15:00.945Z,22.8
2022-08-17T08:20:01.780Z,23.0
2022-08-17T08:25:00.887Z,23.1
2022-08-17T08:30:00.760Z,23.4
2022-08-17T08:35:03.147Z,23.5
2022-08-17T08:40:01.037Z,23.7
2022-08-17T08:45:04.014Z,23.9
2022-08-17T08:50:04.242Z,24.2
2022-08-17T08:55:01.944Z,24.3
2022-08-17T09:00:01.026Z,24.5
2022-08-17T09:05:16.065Z,24.6
2022-08-17T09:10:00.753Z,24.8
2022-08-17T09:15:13.044Z,24.9
2022-08-17T09:20:00.780Z,25.0
2022-08-17T09:30:00.885Z,25.1
2022-08-17T09:40:00.902Z,25.0
2022-08-17T09:45:00.890Z,24.9
2022-08-17T10:00:02.266Z,24.8
2022-08-17T10:10:00.851Z,25.0
2022-08-17T10:15:02.324Z,25.2
2022-08-17T10:20:00.763Z,25.4
2022-08-17T10:25:02.156Z,25.6
2022-08-17T10:30:00.706Z,25.9
2022-08-17T10:40:00.935Z,26.0
2022-08-17T10:45:01.149Z,25.9
2022-08-17T10:55:01.057Z,25.8
2022-08-17T11:00:02.068Z,26.0
2022-08-17T11:05:01.134Z,26.1
2022-08-17T11:10:00.795Z,26.3
2022-08-17T11:15:15.623Z,26.4
2022-08-17T11:20:00.772Z,26.5
2022-08-17T11:25:00.836Z,26.4
2022-08-17T11:30:06.156Z,26.3
2022-08-17T11:40:20.641Z,26.4
2022-08-17T11:45:00.803Z,26.5
2022-08-17T11:50:00.907Z,26.7
2022-08-17T11:55:17.914Z,27.0
2022-08-17T12:00:01.996Z,27.2
2022-08-17T12:15:16.173Z,27.1
2022-08-17T12:20:00.750Z,27.0
2022-08-17T12:30:00.927Z,27.0
2022-08-17T12:40:00.894Z,27.1
2022-08-17T12:45:05.930Z,27.1
2022-08-17T12:50:00.841Z,27.3
2022-08-17T12:55:00.909Z,27.4
2022-08-17T13:00:02.341Z,27.5
2022-08-17T13:05:15.606Z,27.6
2022-08-17T13:15:00.888Z,27.6
2022-08-17T13:25:00.904Z,27.5
2022-08-17T13:30:00.870Z,27.5
2022-08-17T13:35:13.358Z,27.4
2022-08-17T13:45:00.851Z,27.3
2022-08-17T13:50:00.778Z,27.2
2022-08-17T14:00:02.496Z,27.1
2022-08-17T14:15:01.011Z,27.1
2022-08-17T14:25:00.896Z,27.2
2022-08-17T14:30:00.899Z,27.3
2022-08-17T14:45:01.019Z,27.3
2022-08-17T14:50:00.875Z,27.2
2022-08-17T14:55:00.996Z,27.1
2022-08-17T15:00:02.322Z,26.9
2022-08-17T15:05:00.955Z,26.7
2022-08-17T15:10:01.318Z,26.5
2022-08-17T15:15:01.210Z,26.4
2022-08-17T15:20:09.232Z,26.2
2022-08-17T15:25:00.985Z,26.0
2022-08-17T15:30:00.869Z,25.8
2022-08-17T15:35:00.914Z,25.7
2022-08-17T15:40:00.900Z,25.6
2022-08-17T15:45:01.878Z,25.5
2022-08-17T16:00:02.908Z,25.4
2022-08-17T16:15:01.019Z,25.4
2022-08-17T16:20:00.860Z,25.5
2022-08-17T16:25:00.992Z,25.6
2022-08-17T16:30:00.936Z,25.6
2022-08-17T16:35:00.807Z,25.7
2022-08-17T16:45:00.860Z,25.6
2022-08-17T16:50:00.828Z,25.4
2022-08-17T16:55:00.866Z,25.3
2022-08-17T17:00:02.171Z,25.2
2022-08-17T17:15:00.893Z,25.4
2022-08-17T17:20:00.915Z,25.5
2022-08-17T17:25:01.013Z,25.6
2022-08-17T17:30:00.925Z,25.6
2022-08-17T17:35:00.899Z,25.4
2022-08-17T17:40:00.951Z,25.2
2022-08-17T17:45:00.912Z,25.0
2022-08-17T17:50:00.946Z,24.7
2022-08-17T17:55:00.917Z,24.5
2022-08-17T18:00:02.040Z,24.3
2022-08-17T18:05:00.887Z,24.1
2022-08-17T18:10:01.674Z,23.9
2022-08-17T18:15:00.921Z,23.8
2022-08-17T18:20:00.891Z,23.5
2022-08-17T18:25:00.891Z,23.4
2022-08-17T18:30:02.493Z,23.2
2022-08-17T18:35:00.905Z,23.0
2022-08-17T18:40:00.919Z,22.8
2022-08-17T18:45:01.940Z,22.7
2022-08-17T18:50:01.097Z,22.5
2022-08-17T18:55:00.902Z,22.3
2022-08-17T19:00:00.904Z,22.1
2022-08-17T19:05:00.910Z,22.0
2022-08-17T19:10:00.941Z,21.9
2022-08-17T19:15:01.947Z,21.8
2022-08-17T19:20:00.908Z,21.6
2022-08-17T19:25:02.885Z,21.5
2022-08-17T19:30:05.492Z,21.3
2022-08-17T19:35:00.920Z,21.2
2022-08-17T19:40:00.941Z,21.1
2022-08-17T19:45:00.915Z,21.1
2022-08-17T19:50:00.920Z,21.0
2022-08-17T20:00:02.285Z,21.0
2022-08-17T20:15:01.080Z,21.1
2022-08-17T20:25:01.047Z,21.2
2022-08-17T20:30:00.943Z,21.2
2022-08-17T20:45:01.075Z,21.2
2022-08-17T20:50:00.929Z,21.3
2022-08-17T21:00:02.028Z,21.4
2022-08-17T21:05:15.748Z,21.5
2022-08-17T21:10:00.932Z,21.6
2022-08-17T21:30:00.856Z,20.9
2022-08-17T21:40:00.833Z,20.8
2022-08-17T21:45:00.853Z,20.8
2022-08-17T21:50:00.718Z,20.7
2022-08-17T21:55:00.785Z,20.6
2022-08-17T22:00:00.866Z,20.5
2022-08-17T22:10:00.813Z,20.4
2022-08-17T22:15:00.816Z,20.3
2022-08-17T22:20:00.748Z,20.2
2022-08-17T22:25:00.813Z,20.1
2022-08-17T22:30:00.780Z,20.0
2022-08-17T22:40:00.865Z,19.9
2022-08-17T22:45:00.857Z,19.8
2022-08-17T22:50:00.739Z,19.7
2022-08-17T22:55:00.868Z,19.6
2022-08-17T23:00:01.966Z,19.5
2022-08-17T23:05:01.833Z,19.4
2022-08-17T23:10:00.743Z,19.3
2022-08-17T23:15:00.898Z,19.3
2022-08-17T23:30:00.880Z,19.3
2022-08-17T23:45:00.895Z,19.3
2022-08-17T23:50:01.651Z,19.2
